sensor_id;sensor_type;location;lat;lon;timestamp;temperature;humidity
12700;DHT22;6414;49.570;6.060;2023-08-17T00:00:01;18.30;99.90
12700;DHT22;6414;49.570;6.060;2023-08-17T00:02:46;18.30;99.90
12700;DHT22;6414;49.570;6.060;2023-08-17T00:05:32;18.30;99.90
12700;DHT22;6414;49.570;6.060;2023-08-17T00:08:18;18.10;99.90
12700;DHT22;6414;49.570;6.060;2023-08-17T00:11:04;18.20;99.90
12700;DHT22;6414;49.570;6.060;2023-08-17T00:13:51;18.10;99.90
12700;DHT22;6414;49.570;6.060;2023-08-17T00:16:36;18.10;99.90
12700;DHT22;6414;49.570;6.060;2023-08-17T00:19:22;18.10;99.90
12700;DHT22;6414;49.570;6.060;2023-08-17T00:22:08;18.10;99.90
12700;DHT22;6414;49.570;6.060;2023-08-17T00:24:54;18.00;99.90
12700;DHT22;6414;49.570;6.060;2023-08-17T00:27:39;18.10;99.90
12700;DHT22;6414;49.570;6.060;2023-08-17T00:30:25;18.00;99.90
12700;DHT22;6414;49.570;6.060;2023-08-17T00:33:11;18.00;99.90
12700;DHT22;6414;49.570;6.060;2023-08-17T00:35:57;18.00;99.90
12700;DHT22;6414;49.570;6.060;2023-08-17T00:38:44;17.90;99.90
12700;DHT22;6414;49.570;6.060;2023-08-17T00:41:30;17.80;99.90
12700;DHT22;6414;49.570;6.060;2023-08-17T00:44:15;17.90;99.90
12700;DHT22;6414;49.570;6.060;2023-08-17T00:47:02;17.80;99.90
12700;DHT22;6414;49.570;6.060;2023-08-17T00:49:48;17.80;99.90
12700;DHT22;6414;49.570;6.060;2023-08-17T00:52:34;17.80;99.90
12700;DHT22;6414;49.570;6.060;2023-08-17T00:55:21;17.70;99.90
12700;DHT22;6414;49.570;6.060;2023-08-17T00:58:07;17.80;99.90
12700;DHT22;6414;49.570;6.060;2023-08-17T01:00:52;17.80;99.90
12700;DHT22;6414;49.570;6.060;2023-08-17T01:03:39;17.80;99.90
12700;DHT22;6414;49.570;6.060;2023-08-17T01:06:25;17.80;99.90
12700;DHT22;6414;49.570;6.060;2023-08-17T01:09:11;17.70;99.90
12700;DHT22;6414;49.570;6.060;2023-08-17T01:12:21;17.70;99.90
12700;DHT22;6414;49.570;6.060;2023-08-17T01:15:09;17.70;99.90
12700;DHT22;6414;49.570;6.060;2023-08-17T01:18:17;17.70;99.90
12700;DHT22;6414;49.570;6.060;2023-08-17T01:21:02;17.70;99.90
12700;DHT22;6414;49.570;6.060;2023-08-17T01:23:48;17.70;99.90
12700;DHT22;6414;49.570;6.060;2023-08-17T01:26:34;17.70;99.90
12700;DHT22;6414;49.570;6.060;2023-08-17T01:29:20;17.70;99.90
12700;DHT22;6414;49.570;6.060;2023-08-17T01:32:37;17.70;99.90
12700;DHT22;6414;49.570;6.060;2023-08-17T01:35:16;17.60;99.90
12700;DHT22;6414;49.570;6.060;2023-08-17T01:37:58;17.60;99.90
12700;DHT22;6414;49.570;6.060;2023-08-17T01:40:42;17.60;99.90
12700;DHT22;6414;49.570;6.060;2023-08-17T01:43:29;17.50;99.90
12700;DHT22;6414;49.570;6.060;2023-08-17T01:46:15;17.50;99.90
12700;DHT22;6414;49.570;6.060;2023-08-17T01:49:02;17.30;99.90
12700;DHT22;6414;49.570;6.060;2023-08-17T01:51:49;17.30;99.90
12700;DHT22;6414;49.570;6.060;2023-08-17T01:54:35;17.30;99.90
12700;DHT22;6414;49.570;6.060;2023-08-17T01:57:21;17.20;99.90
12700;DHT22;6414;49.570;6.060;2023-08-17T02:00:07;17.30;99.90
12700;DHT22;6414;49.570;6.060;2023-08-17T02:02:53;17.20;99.90
12700;DHT22;6414;49.570;6.060;2023-08-17T02:05:43;17.20;99.90
12700;DHT22;6414;49.570;6.060;2023-08-17T02:08:25;17.20;99.90
12700;DHT22;6414;49.570;6.060;2023-08-17T02:11:12;17.10;99.90
12700;DHT22;6414;49.570;6.060;2023-08-17T02:13:58;17.10;99.90
12700;DHT22;6414;49.570;6.060;2023-08-17T02:16:44;17.10;99.90
12700;DHT22;6414;49.570;6.060;2023-08-17T02:19:31;17.20;99.90
12700;DHT22;6414;49.570;6.060;2023-08-17T02:22:17;17.20;99.90
12700;DHT22;6414;49.570;6.060;2023-08-17T02:25:02;17.20;99.90
12700;DHT22;6414;49.570;6.060;2023-08-17T02:27:48;17.30;99.90
12700;DHT22;6414;49.570;6.060;2023-08-17T02:30:35;17.20;99.90
12700;DHT22;6414;49.570;6.060;2023-08-17T02:33:20;17.20;99.90
12700;DHT22;6414;49.570;6.060;2023-08-17T02:36:07;17.20;99.90
12700;DHT22;6414;49.570;6.060;2023-08-17T02:38:53;17.20;99.90
12700;DHT22;6414;49.570;6.060;2023-08-17T02:41:38;17.20;99.90
12700;DHT22;6414;49.570;6.060;2023-08-17T02:44:25;17.20;99.90
12700;DHT22;6414;49.570;6.060;2023-08-17T02:47:11;17.20;99.90
12700;DHT22;6414;49.570;6.060;2023-08-17T02:49:56;17.20;99.90
12700;DHT22;6414;49.570;6.060;2023-08-17T02:52:42;17.20;99.90
12700;DHT22;6414;49.570;6.060;2023-08-17T02:55:29;17.30;99.90
12700;DHT22;6414;49.570;6.060;2023-08-17T02:58:15;17.40;99.90
12700;DHT22;6414;49.570;6.060;2023-08-17T03:01:02;17.30;99.90
12700;DHT22;6414;49.570;6.060;2023-08-17T03:03:47;17.30;99.90
12700;DHT22;6414;49.570;6.060;2023-08-17T03:06:34;17.20;99.90
12700;DHT22;6414;49.570;6.060;2023-08-17T03:09:20;17.20;99.90
12700;DHT22;6414;49.570;6.060;2023-08-17T03:12:05;17.20;99.90
12700;DHT22;6414;49.570;6.060;2023-08-17T03:14:51;17.20;99.90
12700;DHT22;6414;49.570;6.060;2023-08-17T03:17:37;17.30;99.90
12700;DHT22;6414;49.570;6.060;2023-08-17T03:20:24;17.30;99.90
12700;DHT22;6414;49.570;6.060;2023-08-17T03:23:09;17.30;99.90
12700;DHT22;6414;49.570;6.060;2023-08-17T03:25:56;17.20;99.90
12700;DHT22;6414;49.570;6.060;2023-08-17T03:28:42;17.20;99.90
12700;DHT22;6414;49.570;6.060;2023-08-17T03:31:28;17.20;99.90
12700;DHT22;6414;49.570;6.060;2023-08-17T03:34:14;17.20;99.90
12700;DHT22;6414;49.570;6.060;2023-08-17T03:37:00;17.30;99.90
12700;DHT22;6414;49.570;6.060;2023-08-17T03:39:46;17.20;99.90
12700;DHT22;6414;49.570;6.060;2023-08-17T03:42:32;17.20;99.90
12700;DHT22;6414;49.570;6.060;2023-08-17T03:45:18;17.20;99.90
12700;DHT22;6414;49.570;6.060;2023-08-17T03:48:05;17.20;99.90
12700;DHT22;6414;49.570;6.060;2023-08-17T03:50:54;17.30;99.90
12700;DHT22;6414;49.570;6.060;2023-08-17T03:53:40;17.40;99.90
12700;DHT22;6414;49.570;6.060;2023-08-17T03:56:26;17.30;99.90
12700;DHT22;6414;49.570;6.060;2023-08-17T03:59:13;17.30;99.90
12700;DHT22;6414;49.570;6.060;2023-08-17T04:01:59;17.30;99.90
12700;DHT22;6414;49.570;6.060;2023-08-17T04:04:45;17.30;99.90
12700;DHT22;6414;49.570;6.060;2023-08-17T04:07:31;17.20;99.90
12700;DHT22;6414;49.570;6.060;2023-08-17T04:10:17;17.20;99.90
12700;DHT22;6414;49.570;6.060;2023-08-17T04:13:03;17.20;99.90
12700;DHT22;6414;49.570;6.060;2023-08-17T04:15:52;17.10;99.90
12700;DHT22;6414;49.570;6.060;2023-08-17T04:18:37;17.10;99.90
12700;DHT22;6414;49.570;6.060;2023-08-17T04:21:22;17.20;99.90
12700;DHT22;6414;49.570;6.060;2023-08-17T04:24:09;17.20;99.90
12700;DHT22;6414;49.570;6.060;2023-08-17T04:26:55;17.20;99.90
12700;DHT22;6414;49.570;6.060;2023-08-17T04:29:41;17.20;99.90
12700;DHT22;6414;49.570;6.060;2023-08-17T04:32:28;17.10;99.90
12700;DHT22;6414;49.570;6.060;2023-08-17T04:35:14;17.20;99.90
12700;DHT22;6414;49.570;6.060;2023-08-17T04:38:01;17.10;99.90
12700;DHT22;6414;49.570;6.060;2023-08-17T04:40:47;17.20;99.90
12700;DHT22;6414;49.570;6.060;2023-08-17T04:43:32;17.10;99.90
12700;DHT22;6414;49.570;6.060;2023-08-17T04:46:20;17.10;99.90
12700;DHT22;6414;49.570;6.060;2023-08-17T04:49:06;17.20;99.90
12700;DHT22;6414;49.570;6.060;2023-08-17T04:51:52;17.10;99.90
12700;DHT22;6414;49.570;6.060;2023-08-17T04:54:38;17.10;99.90
12700;DHT22;6414;49.570;6.060;2023-08-17T04:57:24;17.20;99.90
12700;DHT22;6414;49.570;6.060;2023-08-17T05:00:10;17.20;99.90
12700;DHT22;6414;49.570;6.060;2023-08-17T05:02:56;17.30;99.90
12700;DHT22;6414;49.570;6.060;2023-08-17T05:05:42;17.30;99.90
12700;DHT22;6414;49.570;6.060;2023-08-17T05:08:29;17.20;99.90
12700;DHT22;6414;49.570;6.060;2023-08-17T05:11:17;17.20;99.90
12700;DHT22;6414;49.570;6.060;2023-08-17T05:14:03;17.30;99.90
12700;DHT22;6414;49.570;6.060;2023-08-17T05:16:49;17.30;99.90
12700;DHT22;6414;49.570;6.060;2023-08-17T05:19:35;17.30;99.90
12700;DHT22;6414;49.570;6.060;2023-08-17T05:22:21;17.30;99.90
12700;DHT22;6414;49.570;6.060;2023-08-17T05:25:07;17.20;99.90
12700;DHT22;6414;49.570;6.060;2023-08-17T05:27:53;17.10;99.90
12700;DHT22;6414;49.570;6.060;2023-08-17T05:30:39;17.20;99.90
12700;DHT22;6414;49.570;6.060;2023-08-17T05:33:25;17.10;99.90
12700;DHT22;6414;49.570;6.060;2023-08-17T05:36:11;17.10;99.90
12700;DHT22;6414;49.570;6.060;2023-08-17T05:38:58;17.10;99.90
12700;DHT22;6414;49.570;6.060;2023-08-17T05:41:44;17.20;99.90
12700;DHT22;6414;49.570;6.060;2023-08-17T05:44:30;17.30;99.90
12700;DHT22;6414;49.570;6.060;2023-08-17T05:47:16;17.40;99.90
12700;DHT22;6414;49.570;6.060;2023-08-17T05:50:02;17.40;99.90
12700;DHT22;6414;49.570;6.060;2023-08-17T05:52:48;17.40;99.90
12700;DHT22;6414;49.570;6.060;2023-08-17T05:55:34;17.40;99.90
12700;DHT22;6414;49.570;6.060;2023-08-17T05:58:20;17.40;99.90
12700;DHT22;6414;49.570;6.060;2023-08-17T06:01:07;17.50;99.90
12700;DHT22;6414;49.570;6.060;2023-08-17T06:03:53;17.50;99.90
12700;DHT22;6414;49.570;6.060;2023-08-17T06:06:39;17.50;99.90
12700;DHT22;6414;49.570;6.060;2023-08-17T06:09:25;17.50;99.90
12700;DHT22;6414;49.570;6.060;2023-08-17T06:12:12;17.60;99.90
12700;DHT22;6414;49.570;6.060;2023-08-17T06:14:58;17.60;99.90
12700;DHT22;6414;49.570;6.060;2023-08-17T06:17:44;17.70;99.90
12700;DHT22;6414;49.570;6.060;2023-08-17T06:20:32;17.70;99.90
12700;DHT22;6414;49.570;6.060;2023-08-17T06:23:19;17.70;99.90
12700;DHT22;6414;49.570;6.060;2023-08-17T06:26:05;17.70;99.90
12700;DHT22;6414;49.570;6.060;2023-08-17T06:28:51;17.80;99.90
12700;DHT22;6414;49.570;6.060;2023-08-17T06:31:36;17.70;99.90
12700;DHT22;6414;49.570;6.060;2023-08-17T06:34:23;17.80;99.90
12700;DHT22;6414;49.570;6.060;2023-08-17T06:37:09;17.70;99.90
12700;DHT22;6414;49.570;6.060;2023-08-17T06:39:56;17.90;99.90
12700;DHT22;6414;49.570;6.060;2023-08-17T06:42:42;17.90;99.90
12700;DHT22;6414;49.570;6.060;2023-08-17T06:45:28;17.90;99.90
12700;DHT22;6414;49.570;6.060;2023-08-17T06:48:14;17.90;99.90
12700;DHT22;6414;49.570;6.060;2023-08-17T06:51:00;18.00;99.90
12700;DHT22;6414;49.570;6.060;2023-08-17T06:53:46;17.90;99.90
12700;DHT22;6414;49.570;6.060;2023-08-17T06:56:32;17.90;99.90
12700;DHT22;6414;49.570;6.060;2023-08-17T06:59:18;17.90;99.90
12700;DHT22;6414;49.570;6.060;2023-08-17T07:02:05;17.90;99.90
12700;DHT22;6414;49.570;6.060;2023-08-17T07:04:51;17.80;99.90
12700;DHT22;6414;49.570;6.060;2023-08-17T07:07:37;17.90;99.90
12700;DHT22;6414;49.570;6.060;2023-08-17T07:10:23;17.90;99.90
12700;DHT22;6414;49.570;6.060;2023-08-17T07:13:10;17.80;99.90
12700;DHT22;6414;49.570;6.060;2023-08-17T07:15:56;17.90;99.90
12700;DHT22;6414;49.570;6.060;2023-08-17T07:18:42;17.90;99.90
12700;DHT22;6414;49.570;6.060;2023-08-17T07:21:28;17.90;99.90
12700;DHT22;6414;49.570;6.060;2023-08-17T07:24:15;18.00;99.90
12700;DHT22;6414;49.570;6.060;2023-08-17T07:27:01;18.00;99.90
12700;DHT22;6414;49.570;6.060;2023-08-17T07:29:47;18.10;99.90
12700;DHT22;6414;49.570;6.060;2023-08-17T07:32:33;18.00;99.90
12700;DHT22;6414;49.570;6.060;2023-08-17T07:35:19;18.00;99.90
12700;DHT22;6414;49.570;6.060;2023-08-17T07:38:06;18.20;99.90
12700;DHT22;6414;49.570;6.060;2023-08-17T07:40:52;18.40;99.90
12700;DHT22;6414;49.570;6.060;2023-08-17T07:43:38;18.50;99.90
12700;DHT22;6414;49.570;6.060;2023-08-17T07:46:24;18.50;99.90
12700;DHT22;6414;49.570;6.060;2023-08-17T07:49:10;18.50;99.90
12700;DHT22;6414;49.570;6.060;2023-08-17T07:51:57;18.50;99.90
12700;DHT22;6414;49.570;6.060;2023-08-17T07:54:42;18.50;99.90
12700;DHT22;6414;49.570;6.060;2023-08-17T07:57:28;18.40;99.90
12700;DHT22;6414;49.570;6.060;2023-08-17T08:00:15;18.40;99.90
12700;DHT22;6414;49.570;6.060;2023-08-17T08:03:01;18.50;99.90
12700;DHT22;6414;49.570;6.060;2023-08-17T08:05:48;18.50;99.90
12700;DHT22;6414;49.570;6.060;2023-08-17T08:08:33;18.60;99.90
12700;DHT22;6414;49.570;6.060;2023-08-17T08:11:21;18.80;99.90
12700;DHT22;6414;49.570;6.060;2023-08-17T08:14:06;18.80;99.90
12700;DHT22;6414;49.570;6.060;2023-08-17T08:16:52;18.80;99.90
12700;DHT22;6414;49.570;6.060;2023-08-17T08:19:38;18.90;99.90
12700;DHT22;6414;49.570;6.060;2023-08-17T08:22:25;18.90;99.90
12700;DHT22;6414;49.570;6.060;2023-08-17T08:25:11;19.00;99.90
12700;DHT22;6414;49.570;6.060;2023-08-17T08:27:57;18.80;99.90
12700;DHT22;6414;49.570;6.060;2023-08-17T08:30:43;18.90;99.90
12700;DHT22;6414;49.570;6.060;2023-08-17T08:33:29;19.00;99.90
12700;DHT22;6414;49.570;6.060;2023-08-17T08:36:15;19.20;99.90
12700;DHT22;6414;49.570;6.060;2023-08-17T08:39:01;19.20;99.90
12700;DHT22;6414;49.570;6.060;2023-08-17T08:41:48;19.30;99.90
12700;DHT22;6414;49.570;6.060;2023-08-17T08:44:35;19.30;99.90
12700;DHT22;6414;49.570;6.060;2023-08-17T08:47:21;19.30;99.90
12700;DHT22;6414;49.570;6.060;2023-08-17T08:50:07;19.20;99.90
12700;DHT22;6414;49.570;6.060;2023-08-17T08:53:00;19.40;99.90
12700;DHT22;6414;49.570;6.060;2023-08-17T08:55:47;19.40;99.90
12700;DHT22;6414;49.570;6.060;2023-08-17T08:58:31;19.60;99.90
12700;DHT22;6414;49.570;6.060;2023-08-17T09:01:17;19.60;99.90
12700;DHT22;6414;49.570;6.060;2023-08-17T09:04:03;19.50;99.90
12700;DHT22;6414;49.570;6.060;2023-08-17T09:06:49;19.40;99.90
12700;DHT22;6414;49.570;6.060;2023-08-17T09:09:34;19.50;99.90
12700;DHT22;6414;49.570;6.060;2023-08-17T09:12:21;19.30;99.90
12700;DHT22;6414;49.570;6.060;2023-08-17T09:15:07;19.20;99.90
12700;DHT22;6414;49.570;6.060;2023-08-17T09:17:53;19.30;99.90
12700;DHT22;6414;49.570;6.060;2023-08-17T09:20:42;19.30;99.90
12700;DHT22;6414;49.570;6.060;2023-08-17T09:23:27;19.30;99.90
12700;DHT22;6414;49.570;6.060;2023-08-17T09:26:13;19.40;99.90
12700;DHT22;6414;49.570;6.060;2023-08-17T09:28:59;19.40;99.90
12700;DHT22;6414;49.570;6.060;2023-08-17T09:31:48;19.30;99.90
12700;DHT22;6414;49.570;6.060;2023-08-17T09:34:34;19.20;99.90
12700;DHT22;6414;49.570;6.060;2023-08-17T09:37:20;19.20;99.90
12700;DHT22;6414;49.570;6.060;2023-08-17T09:40:07;19.30;99.90
12700;DHT22;6414;49.570;6.060;2023-08-17T09:42:53;19.30;99.90
12700;DHT22;6414;49.570;6.060;2023-08-17T09:45:40;19.40;99.90
12700;DHT22;6414;49.570;6.060;2023-08-17T09:48:26;19.40;99.90
12700;DHT22;6414;49.570;6.060;2023-08-17T09:51:16;19.30;99.90
12700;DHT22;6414;49.570;6.060;2023-08-17T09:53:58;19.50;99.90
12700;DHT22;6414;49.570;6.060;2023-08-17T09:56:44;19.60;99.90
12700;DHT22;6414;49.570;6.060;2023-08-17T09:59:30;19.70;99.90
12700;DHT22;6414;49.570;6.060;2023-08-17T10:02:17;19.70;99.90
12700;DHT22;6414;49.570;6.060;2023-08-17T10:05:03;19.70;99.90
12700;DHT22;6414;49.570;6.060;2023-08-17T10:07:54;19.90;99.90
12700;DHT22;6414;49.570;6.060;2023-08-17T10:10:40;20.00;99.90
12700;DHT22;6414;49.570;6.060;2023-08-17T10:13:31;20.00;99.90
12700;DHT22;6414;49.570;6.060;2023-08-17T10:16:20;20.00;99.90
12700;DHT22;6414;49.570;6.060;2023-08-17T10:19:30;20.10;99.90
12700;DHT22;6414;49.570;6.060;2023-08-17T10:22:18;20.30;99.90
12700;DHT22;6414;49.570;6.060;2023-08-17T10:25:03;20.60;99.90
12700;DHT22;6414;49.570;6.060;2023-08-17T10:27:49;20.50;99.90
12700;DHT22;6414;49.570;6.060;2023-08-17T10:30:35;21.00;99.90
12700;DHT22;6414;49.570;6.060;2023-08-17T10:33:21;21.30;99.90
12700;DHT22;6414;49.570;6.060;2023-08-17T10:36:07;21.60;99.90
12700;DHT22;6414;49.570;6.060;2023-08-17T10:39:22;22.20;99.90
12700;DHT22;6414;49.570;6.060;2023-08-17T10:42:03;22.10;99.90
12700;DHT22;6414;49.570;6.060;2023-08-17T10:44:49;21.70;99.90
12700;DHT22;6414;49.570;6.060;2023-08-17T10:47:35;21.70;99.90
12700;DHT22;6414;49.570;6.060;2023-08-17T10:50:24;21.80;99.90
12700;DHT22;6414;49.570;6.060;2023-08-17T10:53:13;22.00;99.90
12700;DHT22;6414;49.570;6.060;2023-08-17T10:55:59;22.20;99.90
12700;DHT22;6414;49.570;6.060;2023-08-17T10:58:45;22.20;99.90
12700;DHT22;6414;49.570;6.060;2023-08-17T11:01:36;22.30;99.90
12700;DHT22;6414;49.570;6.060;2023-08-17T11:04:22;22.10;99.90
12700;DHT22;6414;49.570;6.060;2023-08-17T11:07:13;21.90;99.90
12700;DHT22;6414;49.570;6.060;2023-08-17T11:09:56;21.90;99.90
12700;DHT22;6414;49.570;6.060;2023-08-17T11:12:43;21.80;99.90
12700;DHT22;6414;49.570;6.060;2023-08-17T11:15:42;21.80;99.90
12700;DHT22;6414;49.570;6.060;2023-08-17T11:18:24;21.60;99.90
12700;DHT22;6414;49.570;6.060;2023-08-17T11:21:11;21.60;99.90
12700;DHT22;6414;49.570;6.060;2023-08-17T11:23:57;21.60;99.90
12700;DHT22;6414;49.570;6.060;2023-08-17T11:26:43;21.70;99.90
12700;DHT22;6414;49.570;6.060;2023-08-17T11:29:31;21.80;99.90
12700;DHT22;6414;49.570;6.060;2023-08-17T11:32:16;21.90;99.90
12700;DHT22;6414;49.570;6.060;2023-08-17T11:35:02;21.90;99.90
12700;DHT22;6414;49.570;6.060;2023-08-17T11:37:48;21.80;99.90
12700;DHT22;6414;49.570;6.060;2023-08-17T11:40:35;21.90;99.90
12700;DHT22;6414;49.570;6.060;2023-08-17T11:43:21;22.10;99.90
12700;DHT22;6414;49.570;6.060;2023-08-17T11:46:06;22.10;99.90
12700;DHT22;6414;49.570;6.060;2023-08-17T11:48:53;22.10;99.90
12700;DHT22;6414;49.570;6.060;2023-08-17T11:51:39;22.10;99.90
12700;DHT22;6414;49.570;6.060;2023-08-17T11:54:25;22.00;99.90
12700;DHT22;6414;49.570;6.060;2023-08-17T11:57:12;22.10;99.90
12700;DHT22;6414;49.570;6.060;2023-08-17T11:59:58;22.10;99.90
12700;DHT22;6414;49.570;6.060;2023-08-17T12:02:49;22.30;99.90
12700;DHT22;6414;49.570;6.060;2023-08-17T12:05:34;22.30;99.90
12700;DHT22;6414;49.570;6.060;2023-08-17T12:08:20;22.40;99.90
12700;DHT22;6414;49.570;6.060;2023-08-17T12:11:06;22.30;99.90
12700;DHT22;6414;49.570;6.060;2023-08-17T12:13:54;22.30;99.90
12700;DHT22;6414;49.570;6.060;2023-08-17T12:16:49;22.30;99.90
12700;DHT22;6414;49.570;6.060;2023-08-17T12:19:35;22.30;99.90
12700;DHT22;6414;49.570;6.060;2023-08-17T12:22:23;22.30;99.90
12700;DHT22;6414;49.570;6.060;2023-08-17T12:25:07;22.40;99.90
12700;DHT22;6414;49.570;6.060;2023-08-17T12:27:52;22.40;99.90
12700;DHT22;6414;49.570;6.060;2023-08-17T12:30:39;22.50;99.90
12700;DHT22;6414;49.570;6.060;2023-08-17T12:33:25;22.70;99.90
12700;DHT22;6414;49.570;6.060;2023-08-17T12:36:10;22.90;99.90
12700;DHT22;6414;49.570;6.060;2023-08-17T12:38:57;23.10;99.90
12700;DHT22;6414;49.570;6.060;2023-08-17T12:41:43;23.20;99.90
12700;DHT22;6414;49.570;6.060;2023-08-17T12:44:29;23.30;99.90
12700;DHT22;6414;49.570;6.060;2023-08-17T12:47:15;23.30;99.90
12700;DHT22;6414;49.570;6.060;2023-08-17T12:50:01;23.40;99.90
12700;DHT22;6414;49.570;6.060;2023-08-17T12:52:47;23.50;99.90
12700;DHT22;6414;49.570;6.060;2023-08-17T12:55:34;23.60;99.90
12700;DHT22;6414;49.570;6.060;2023-08-17T12:58:21;23.60;99.90
12700;DHT22;6414;49.570;6.060;2023-08-17T13:01:07;23.50;99.90
12700;DHT22;6414;49.570;6.060;2023-08-17T13:03:53;23.30;99.90
12700;DHT22;6414;49.570;6.060;2023-08-17T13:06:39;23.40;99.90
12700;DHT22;6414;49.570;6.060;2023-08-17T13:09:24;23.30;99.90
12700;DHT22;6414;49.570;6.060;2023-08-17T13:12:10;23.40;99.90
12700;DHT22;6414;49.570;6.060;2023-08-17T13:14:56;23.30;99.90
12700;DHT22;6414;49.570;6.060;2023-08-17T13:17:42;23.60;99.90
12700;DHT22;6414;49.570;6.060;2023-08-17T13:20:28;23.50;99.90
12700;DHT22;6414;49.570;6.060;2023-08-17T13:23:15;23.50;99.90
12700;DHT22;6414;49.570;6.060;2023-08-17T13:26:01;23.50;99.90
12700;DHT22;6414;49.570;6.060;2023-08-17T13:28:48;23.70;99.90
12700;DHT22;6414;49.570;6.060;2023-08-17T13:31:34;23.70;99.90
12700;DHT22;6414;49.570;6.060;2023-08-17T13:34:20;23.80;99.90
12700;DHT22;6414;49.570;6.060;2023-08-17T13:37:07;23.80;99.90
12700;DHT22;6414;49.570;6.060;2023-08-17T13:39:53;23.60;99.90
12700;DHT22;6414;49.570;6.060;2023-08-17T13:42:39;23.40;99.90
12700;DHT22;6414;49.570;6.060;2023-08-17T13:45:25;23.40;99.90
12700;DHT22;6414;49.570;6.060;2023-08-17T13:48:11;23.40;99.90
12700;DHT22;6414;49.570;6.060;2023-08-17T13:50:57;23.50;99.90
12700;DHT22;6414;49.570;6.060;2023-08-17T13:53:43;23.60;99.90
12700;DHT22;6414;49.570;6.060;2023-08-17T13:56:29;23.50;99.90
12700;DHT22;6414;49.570;6.060;2023-08-17T13:59:16;23.50;99.90
12700;DHT22;6414;49.570;6.060;2023-08-17T14:02:01;23.50;99.90
12700;DHT22;6414;49.570;6.060;2023-08-17T14:04:48;23.60;99.90
12700;DHT22;6414;49.570;6.060;2023-08-17T14:07:35;23.50;99.90
12700;DHT22;6414;49.570;6.060;2023-08-17T14:10:21;23.50;99.90
12700;DHT22;6414;49.570;6.060;2023-08-17T14:13:07;23.50;99.90
12700;DHT22;6414;49.570;6.060;2023-08-17T14:15:53;23.50;99.90
12700;DHT22;6414;49.570;6.060;2023-08-17T14:18:40;23.40;99.90
12700;DHT22;6414;49.570;6.060;2023-08-17T14:21:27;23.40;99.90
12700;DHT22;6414;49.570;6.060;2023-08-17T14:24:14;23.50;99.90
12700;DHT22;6414;49.570;6.060;2023-08-17T14:27:00;23.70;99.90
12700;DHT22;6414;49.570;6.060;2023-08-17T14:29:46;23.70;99.90
12700;DHT22;6414;49.570;6.060;2023-08-17T14:32:32;23.60;99.90
12700;DHT22;6414;49.570;6.060;2023-08-17T14:35:19;23.60;99.90
12700;DHT22;6414;49.570;6.060;2023-08-17T14:38:06;23.60;99.90
12700;DHT22;6414;49.570;6.060;2023-08-17T14:40:52;23.60;99.90
12700;DHT22;6414;49.570;6.060;2023-08-17T14:43:38;23.70;99.90
12700;DHT22;6414;49.570;6.060;2023-08-17T14:46:25;23.80;99.90
12700;DHT22;6414;49.570;6.060;2023-08-17T14:49:11;23.80;99.90
12700;DHT22;6414;49.570;6.060;2023-08-17T14:51:57;23.90;99.90
12700;DHT22;6414;49.570;6.060;2023-08-17T14:54:44;23.90;99.90
12700;DHT22;6414;49.570;6.060;2023-08-17T14:57:30;23.90;99.90
12700;DHT22;6414;49.570;6.060;2023-08-17T15:00:16;23.90;99.90
12700;DHT22;6414;49.570;6.060;2023-08-17T15:03:02;23.90;99.90
12700;DHT22;6414;49.570;6.060;2023-08-17T15:05:49;23.90;99.90
12700;DHT22;6414;49.570;6.060;2023-08-17T15:08:34;23.90;99.90
12700;DHT22;6414;49.570;6.060;2023-08-17T15:11:21;24.10;99.90
12700;DHT22;6414;49.570;6.060;2023-08-17T15:14:07;24.10;99.90
12700;DHT22;6414;49.570;6.060;2023-08-17T15:16:53;24.00;99.90
12700;DHT22;6414;49.570;6.060;2023-08-17T15:19:40;24.00;99.90
12700;DHT22;6414;49.570;6.060;2023-08-17T15:22:26;24.00;99.90
12700;DHT22;6414;49.570;6.060;2023-08-17T15:25:12;24.00;99.90
12700;DHT22;6414;49.570;6.060;2023-08-17T15:27:59;24.00;99.90
12700;DHT22;6414;49.570;6.060;2023-08-17T15:30:48;24.00;99.90
12700;DHT22;6414;49.570;6.060;2023-08-17T15:33:32;23.90;99.90
12700;DHT22;6414;49.570;6.060;2023-08-17T15:36:19;24.00;99.90
12700;DHT22;6414;49.570;6.060;2023-08-17T15:39:05;24.00;99.90
12700;DHT22;6414;49.570;6.060;2023-08-17T15:41:52;23.90;99.90
12700;DHT22;6414;49.570;6.060;2023-08-17T15:44:38;23.90;99.90
12700;DHT22;6414;49.570;6.060;2023-08-17T15:47:24;23.90;99.90
12700;DHT22;6414;49.570;6.060;2023-08-17T15:50:10;23.90;99.90
12700;DHT22;6414;49.570;6.060;2023-08-17T15:52:56;23.80;99.90
12700;DHT22;6414;49.570;6.060;2023-08-17T15:55:43;23.90;99.90
12700;DHT22;6414;49.570;6.060;2023-08-17T15:58:29;23.90;99.90
12700;DHT22;6414;49.570;6.060;2023-08-17T16:01:15;23.80;99.90
12700;DHT22;6414;49.570;6.060;2023-08-17T16:04:01;23.90;99.90
12700;DHT22;6414;49.570;6.060;2023-08-17T16:06:47;23.80;99.90
12700;DHT22;6414;49.570;6.060;2023-08-17T16:09:33;23.70;99.90
12700;DHT22;6414;49.570;6.060;2023-08-17T16:12:20;23.70;99.90
12700;DHT22;6414;49.570;6.060;2023-08-17T16:15:06;23.80;99.90
12700;DHT22;6414;49.570;6.060;2023-08-17T16:17:51;23.90;99.90
12700;DHT22;6414;49.570;6.060;2023-08-17T16:20:38;23.80;99.90
12700;DHT22;6414;49.570;6.060;2023-08-17T16:23:24;23.80;99.90
12700;DHT22;6414;49.570;6.060;2023-08-17T16:26:10;23.80;99.90
12700;DHT22;6414;49.570;6.060;2023-08-17T16:28:56;23.80;99.90
12700;DHT22;6414;49.570;6.060;2023-08-17T16:31:42;23.80;99.90
12700;DHT22;6414;49.570;6.060;2023-08-17T16:34:31;23.70;99.90
12700;DHT22;6414;49.570;6.060;2023-08-17T16:37:18;23.40;99.90
12700;DHT22;6414;49.570;6.060;2023-08-17T16:40:05;23.40;99.90
12700;DHT22;6414;49.570;6.060;2023-08-17T16:42:51;23.50;99.90
12700;DHT22;6414;49.570;6.060;2023-08-17T16:45:38;23.70;99.90
12700;DHT22;6414;49.570;6.060;2023-08-17T16:48:25;23.70;99.90
12700;DHT22;6414;49.570;6.060;2023-08-17T16:51:10;23.70;99.90
12700;DHT22;6414;49.570;6.060;2023-08-17T16:53:56;23.70;99.90
12700;DHT22;6414;49.570;6.060;2023-08-17T16:56:42;23.80;99.90
12700;DHT22;6414;49.570;6.060;2023-08-17T16:59:31;23.80;99.90
12700;DHT22;6414;49.570;6.060;2023-08-17T17:02:17;23.70;99.90
12700;DHT22;6414;49.570;6.060;2023-08-17T17:05:03;23.70;99.90
12700;DHT22;6414;49.570;6.060;2023-08-17T17:07:49;23.60;99.90
12700;DHT22;6414;49.570;6.060;2023-08-17T17:10:35;23.50;99.90
12700;DHT22;6414;49.570;6.060;2023-08-17T17:13:21;23.60;99.90
12700;DHT22;6414;49.570;6.060;2023-08-17T17:16:08;23.60;99.90
12700;DHT22;6414;49.570;6.060;2023-08-17T17:18:57;23.60;99.90
12700;DHT22;6414;49.570;6.060;2023-08-17T17:21:43;23.60;99.90
12700;DHT22;6414;49.570;6.060;2023-08-17T17:24:29;23.60;99.90
12700;DHT22;6414;49.570;6.060;2023-08-17T17:27:15;23.50;99.90
12700;DHT22;6414;49.570;6.060;2023-08-17T17:30:01;23.50;99.90
12700;DHT22;6414;49.570;6.060;2023-08-17T17:32:48;23.40;99.90
12700;DHT22;6414;49.570;6.060;2023-08-17T17:35:34;23.40;99.90
12700;DHT22;6414;49.570;6.060;2023-08-17T17:38:21;23.40;99.90
12700;DHT22;6414;49.570;6.060;2023-08-17T17:41:08;23.40;99.90
12700;DHT22;6414;49.570;6.060;2023-08-17T17:43:54;23.40;99.90
12700;DHT22;6414;49.570;6.060;2023-08-17T17:46:40;23.40;99.90